Time;durP1;ratioP1;P1;durP2;ratioP2;P2;SDS_P1;SDS_P2;PMS_P1;PMS_P2;Temp;Humidity;BMP_temperature;BMP_pressure;BME280_temperature;BME280_humidity;BME280_pressure;Samples;Min_cycle;Max_cycle;Signal;HPM_P1;HPM_P2
2022/10/24 00:01:26;;;;;;;5.00;4.43;;;;;;;14.20;100.00;100787.34;4951333;28;20212;-77
2022/10/24 00:03:51;;;;;;;9.23;5.00;;;;;;;14.17;100.00;100787.28;4950664;28;20209;-77
2022/10/24 00:06:18;;;;;;;11.23;5.30;;;;;;;14.18;100.00;100786.44;4951111;28;20185;-77
2022/10/24 00:08:43;;;;;;;8.70;5.30;;;;;;;14.19;100.00;100779.56;4951577;28;20200;-78
2022/10/24 00:11:18;;;;;;;5.53;4.90;;;;;;;14.15;100.00;100763.25;4956119;28;20208;-78
2022/10/24 00:13:43;;;;;;;11.70;4.80;;;;;;;14.16;100.00;100769.25;4950880;28;20184;-78
2022/10/24 00:16:10;;;;;;;9.50;4.20;;;;;;;14.15;100.00;100772.69;4950404;28;20268;-77
2022/10/24 00:18:36;;;;;;;7.33;4.60;;;;;;;14.15;100.00;100764.97;4951685;28;20280;-77
2022/10/24 00:21:03;;;;;;;7.50;4.13;;;;;;;14.12;100.00;100765.81;4950950;28;20666;-77
2022/10/24 00:23:28;;;;;;;6.03;4.07;;;;;;;14.13;100.00;100767.53;4952354;28;20227;-78
2022/10/24 00:25:53;;;;;;;5.50;4.07;;;;;;;14.14;100.00;100769.25;4951549;28;20271;-78
2022/10/24 00:28:19;;;;;;;6.83;4.07;;;;;;;14.14;100.00;100776.97;4950199;29;20702;-78
2022/10/24 00:30:44;;;;;;;6.37;4.33;;;;;;;14.15;100.00;100775.28;4951367;28;20780;-77
2022/10/24 00:33:10;;;;;;;7.73;3.97;;;;;;;14.11;100.00;100779.56;4951549;28;20197;-77
2022/10/24 00:35:35;;;;;;;7.10;4.60;;;;;;;14.14;100.00;100781.28;4951125;28;20201;-78
2022/10/24 00:38:00;;;;;;;6.50;4.63;;;;;;;14.12;100.00;100776.13;4948823;29;20200;-77
2022/10/24 00:40:26;;;;;;;6.80;4.77;;;;;;;14.12;100.00;100781.28;4944179;29;20189;-78
2022/10/24 00:42:51;;;;;;;6.97;4.77;;;;;;;14.12;100.00;100770.09;4932195;29;20298;-77
2022/10/24 00:45:39;;;;;;;5.87;4.03;;;;;;;14.13;100.00;100764.97;4951244;28;20712;-78
2022/10/24 00:48:14;;;;;;;9.10;4.70;;;;;;;14.16;100.00;100761.53;4944898;28;20212;-77
2022/10/24 00:50:39;;;;;;;5.10;3.40;;;;;;;14.15;100.00;100763.25;4951359;28;20204;-77
2022/10/24 00:53:05;;;;;;;7.57;4.07;;;;;;;14.15;100.00;100749.50;4952113;28;20204;-77
2022/10/24 00:55:31;;;;;;;6.90;4.30;;;;;;;14.12;100.00;100736.63;4950288;28;20597;-78
2022/10/24 00:58:00;;;;;;;7.30;4.50;;;;;;;14.08;100.00;100745.22;4949756;28;20194;-79
2022/10/24 01:00:30;;;;;;;8.00;4.27;;;;;;;14.10;100.00;100740.91;4953188;28;20280;-79
2022/10/24 01:02:55;;;;;;;5.73;3.77;;;;;;;14.09;100.00;100742.63;4949716;28;20213;-78
2022/10/24 01:05:25;;;;;;;6.47;4.00;;;;;;;14.06;100.00;100747.78;4954087;28;20205;-78
2022/10/24 01:08:26;;;;;;;7.97;4.40;;;;;;;14.06;100.00;100752.06;4950305;28;20205;-78
2022/10/24 01:11:19;;;;;;;5.17;4.53;;;;;;;14.06;100.00;100745.19;4905882;29;20321;-78
2022/10/24 01:14:01;;;;;;;6.27;4.30;;;;;;;14.04;100.00;100740.91;4950290;28;20332;-77
2022/10/24 01:16:36;;;;;;;5.23;4.50;;;;;;;14.04;100.00;100738.31;4953200;28;20284;-77
2022/10/24 01:19:23;;;;;;;8.37;4.77;;;;;;;13.99;100.00;100740.03;4952679;28;20553;-79
2022/10/24 01:21:56;;;;;;;5.90;4.27;;;;;;;13.96;100.00;100738.31;4957366;28;20267;-77
2022/10/24 01:25:02;;;;;;;6.20;4.37;;;;;;;13.95;100.00;100741.72;4955064;28;20205;-78
2022/10/24 01:27:52;;;;;;;6.20;4.30;;;;;;;13.88;100.00;100745.13;4921606;28;20211;-78
2022/10/24 01:30:18;;;;;;;6.33;3.83;;;;;;;13.81;100.00;100742.53;4954657;28;20193;-78
2022/10/24 01:32:46;;;;;;;6.30;4.43;;;;;;;13.80;100.00;100746.78;4954079;28;20181;-78
2022/10/24 01:35:46;;;;;;;6.40;4.37;;;;;;;13.77;100.00;100735.63;4937021;28;21779;-78
2022/10/24 01:38:14;;;;;;;8.53;4.20;;;;;;;13.78;100.00;100734.78;4951189;28;20186;-77
2022/10/24 01:40:58;;;;;;;7.10;4.23;;;;;;;13.77;100.00;100723.59;4952033;28;20204;-78
2022/10/24 01:43:31;;;;;;;7.43;4.10;;;;;;;13.74;100.00;100723.63;4933762;29;20222;-77
2022/10/24 01:46:01;;;;;;;4.53;3.90;;;;;;;13.73;100.00;100721.03;4953999;28;20189;-78
2022/10/24 01:48:31;;;;;;;6.93;4.17;;;;;;;13.70;100.00;100726.16;4949722;28;20279;-79
2022/10/24 01:50:58;;;;;;;7.17;3.50;;;;;;;13.68;100.00;100720.16;4952154;29;20312;-79
2022/10/24 01:53:27;;;;;;;4.67;4.27;;;;;;;13.62;100.00;100717.56;4952377;28;20248;-78
2022/10/24 01:55:53;;;;;;;6.63;3.60;;;;;;;13.52;100.00;100715.75;4954394;28;20247;-78
2022/10/24 01:58:19;;;;;;;4.67;3.53;;;;;;;13.52;100.00;100713.19;4953534;28;20285;-78
2022/10/24 02:00:47;;;;;;;4.53;3.57;;;;;;;13.42;100.00;100716.56;4952561;28;20300;-78
2022/10/24 02:03:25;;;;;;;8.60;4.20;;;;;;;13.41;100.00;100720.00;4952748;29;20209;-78
2022/10/24 02:05:57;;;;;;;7.10;3.80;;;;;;;13.36;100.00;100721.69;4953176;28;20197;-78
2022/10/24 02:08:34;;;;;;;9.40;4.13;;;;;;;13.32;100.00;100717.38;4953107;28;20196;-78
2022/10/24 02:11:03;;;;;;;5.27;3.43;;;;;;;13.21;100.00;100717.28;4968623;28;20272;-77
2022/10/24 02:13:38;;;;;;;5.80;3.50;;;;;;;13.15;100.00;100714.69;4936158;29;20193;-78
2022/10/24 02:16:04;;;;;;;6.73;3.50;;;;;;;13.18;100.00;100707.00;4953641;28;20184;-78
2022/10/24 02:18:32;;;;;;;5.13;3.80;;;;;;;13.15;100.00;100706.97;4952494;28;20681;-78
2022/10/24 02:21:13;;;;;;;4.60;3.73;;;;;;;13.13;100.00;100702.69;4937709;29;20245;-78
2022/10/24 02:23:51;;;;;;;7.07;3.27;;;;;;;13.01;100.00;100698.31;4954719;28;20248;-77
2022/10/24 02:26:33;;;;;;;4.63;3.23;;;;;;;12.99;100.00;100699.16;4938729;29;20208;-78
2022/10/24 02:29:07;;;;;;;5.77;2.87;;;;;;;12.90;100.00;100702.50;4952620;28;20248;-77
2022/10/24 02:31:39;;;;;;;4.00;3.17;;;;;;;12.85;100.00;100693.84;4954595;28;20692;-77
2022/10/24 02:34:08;;;;;;;5.13;3.37;;;;;;;12.82;100.00;100691.28;4952746;28;20209;-78
2022/10/24 02:36:35;;;;;;;6.60;3.30;;;;;;;12.81;100.00;100681.84;4935888;28;20263;-78
2022/10/24 02:39:04;;;;;;;8.40;3.50;;;;;;;12.76;100.00;100684.38;4953045;28;20705;-77
2022/10/24 02:41:34;;;;;;;4.97;3.00;;;;;;;12.69;100.00;100689.47;4952737;28;20628;-77
2022/10/24 02:44:01;;;;;;;4.80;3.10;;;;;;;12.69;100.00;100674.91;4967559;28;20217;-77
2022/10/24 02:46:29;;;;;;;4.03;3.23;;;;;;;12.64;100.00;100675.72;4951572;28;20197;-77
2022/10/24 02:49:00;;;;;;;4.83;3.10;;;;;;;12.59;100.00;100673.09;4952687;28;20197;-78
2022/10/24 02:51:29;;;;;;;6.47;3.30;;;;;;;12.58;100.00;100673.09;4953302;28;20248;-78
2022/10/24 02:53:57;;;;;;;4.30;2.80;;;;;;;12.48;100.00;100673.84;4953526;28;20196;-77
2022/10/24 02:56:22;;;;;;;6.23;3.63;;;;;;;12.56;100.00;100667.94;4952719;28;20189;-76
2022/10/24 02:58:48;;;;;;;4.13;3.43;;;;;;;12.67;100.00;100676.59;4964932;28;20200;-77
2022/10/24 03:01:13;;;;;;;6.73;3.70;;;;;;;12.74;100.00;100669.78;4952705;28;20201;-79
2022/10/24 03:03:39;;;;;;;6.93;3.50;;;;;;;12.75;100.00;100672.38;4951049;28;20219;-77
2022/10/24 03:06:04;;;;;;;5.47;3.87;;;;;;;12.74;100.00;100674.94;4951352;28;20184;-79
2022/10/24 03:08:30;;;;;;;6.63;3.77;;;;;;;12.71;100.00;100662.94;4951558;28;20197;-79
2022/10/24 03:10:55;;;;;;;8.97;3.80;;;;;;;12.64;100.00;100665.44;4951259;28;20292;-79
2022/10/24 03:13:20;;;;;;;3.77;3.43;;;;;;;12.65;100.00;100662.00;4953280;28;20259;-78
2022/10/24 03:15:46;;;;;;;6.90;4.20;;;;;;;12.66;100.00;100662.03;4953033;28;20208;-79
2022/10/24 03:18:11;;;;;;;4.80;3.90;;;;;;;12.70;100.00;100660.34;4954635;28;20729;-78
2022/10/24 03:20:37;;;;;;;6.10;4.10;;;;;;;12.68;100.00;100662.06;4935806;29;20237;-79
2022/10/24 03:23:02;;;;;;;4.23;3.83;;;;;;;12.69;100.00;100659.50;4952206;28;20734;-79
2022/10/24 03:25:28;;;;;;;7.70;4.10;;;;;;;12.62;100.00;100652.56;4933657;29;20775;-79
2022/10/24 03:27:53;;;;;;;8.13;4.10;;;;;;;12.58;100.00;100643.13;4953245;28;20256;-79
2022/10/24 03:30:19;;;;;;;5.00;4.40;;;;;;;12.58;100.00;100643.13;4950322;28;20272;-77
2022/10/24 03:32:44;;;;;;;7.63;4.10;;;;;;;12.50;100.00;100637.06;4941664;28;20302;-78
2022/10/24 03:35:10;;;;;;;5.87;3.87;;;;;;;12.45;100.00;100633.59;4945980;28;20205;-79
2022/10/24 03:37:35;;;;;;;8.60;4.30;;;;;;;12.52;100.00;100634.50;4945850;28;20231;-79
2022/10/24 03:40:01;;;;;;;11.03;4.73;;;;;;;12.50;100.00;100644.75;4951736;28;20204;-79
2022/10/24 03:42:26;;;;;;;7.90;4.03;;;;;;;12.53;100.00;100651.66;4952421;28;20252;-80
2022/10/24 03:44:52;;;;;;;9.67;4.10;;;;;;;12.51;100.00;100648.19;4934846;29;21076;-80
2022/10/24 03:47:18;;;;;;;6.63;3.87;;;;;;;12.50;100.00;100656.75;4952137;29;20678;-79
2022/10/24 03:49:44;;;;;;;7.40;4.27;;;;;;;12.49;100.00;100650.75;4945145;29;20198;-79
2022/10/24 03:52:10;;;;;;;5.13;3.60;;;;;;;12.42;100.00;100645.56;4951627;29;20280;-78
2022/10/24 03:54:35;;;;;;;9.33;3.90;;;;;;;12.33;100.00;100642.91;4944337;29;20206;-77
2022/10/24 03:57:01;;;;;;;14.73;4.37;;;;;;;12.32;100.00;100644.63;4946107;29;20200;-77
2022/10/24 03:59:26;;;;;;;7.23;4.27;;;;;;;12.26;100.00;100638.56;4964182;28;20671;-78
2022/10/24 04:01:52;;;;;;;6.27;3.60;;;;;;;12.21;100.00;100627.41;4950226;29;20299;-78
2022/10/24 04:04:17;;;;;;;7.47;3.80;;;;;;;12.18;100.00;100625.69;4950822;29;20220;-78
2022/10/24 04:06:43;;;;;;;11.43;4.27;;;;;;;12.15;100.00;100637.59;4966535;28;20220;-78
2022/10/24 04:09:08;;;;;;;7.37;3.77;;;;;;;12.12;100.00;100624.75;4952287;28;20185;-78
2022/10/24 04:11:34;;;;;;;5.60;4.03;;;;;;;12.13;100.00;100635.00;4953242;28;20303;-76
2022/10/24 04:14:02;;;;;;;6.17;3.77;;;;;;;12.04;100.00;100629.81;4966043;28;20738;-77
2022/10/24 04:16:28;;;;;;;5.87;3.43;;;;;;;11.95;100.00;100631.41;4953177;28;20185;-77
2022/10/24 04:18:53;;;;;;;6.23;3.53;;;;;;;11.91;100.00;100625.41;4950157;28;20196;-77
2022/10/24 04:21:19;;;;;;;12.80;3.50;;;;;;;11.87;100.00;100621.06;4949979;28;20221;-77
2022/10/24 04:23:44;;;;;;;5.10;3.70;;;;;;;11.84;100.00;100615.91;4950289;29;20217;-77
2022/10/24 04:26:13;;;;;;;8.13;3.80;;;;;;;11.82;100.00;100625.31;4951207;28;20200;-78
2022/10/24 04:28:39;;;;;;;7.30;4.00;;;;;;;11.90;100.00;100617.69;4950944;28;20193;-78
2022/10/24 04:31:05;;;;;;;5.90;3.53;;;;;;;11.92;100.00;100619.41;4950292;28;20217;-77
2022/10/24 04:33:30;;;;;;;9.30;3.83;;;;;;;11.88;100.00;100625.34;4950424;29;20205;-76
2022/10/24 04:35:56;;;;;;;4.67;3.30;;;;;;;11.83;100.00;100639.84;4951672;28;20193;-80
2022/10/24 04:38:21;;;;;;;4.27;3.20;;;;;;;11.76;100.00;100640.59;4950162;29;20196;-79
2022/10/24 04:40:48;;;;;;;4.73;3.83;;;;;;;11.69;100.00;100625.13;4950534;29;20216;-78
2022/10/24 04:43:14;;;;;;;6.83;3.30;;;;;;;11.65;100.00;100615.69;4951329;28;20300;-77
2022/10/24 04:45:39;;;;;;;12.87;3.97;;;;;;;11.66;100.00;100627.69;4947092;28;20288;-78
2022/10/24 04:48:05;;;;;;;9.07;3.97;;;;;;;11.64;100.00;100622.53;4946563;29;20296;-78
2022/10/24 04:50:30;;;;;;;9.83;4.10;;;;;;;11.64;100.00;100622.53;4943715;28;20756;-78
2022/10/24 04:52:56;;;;;;;6.93;3.93;;;;;;;11.64;100.00;100626.78;4945587;28;20927;-77
2022/10/24 04:55:21;;;;;;;7.30;4.00;;;;;;;11.62;100.00;100631.91;4948861;29;20334;-77
2022/10/24 04:57:47;;;;;;;6.53;3.93;;;;;;;11.65;100.00;100638.75;4944447;29;20216;-78
2022/10/24 05:00:12;;;;;;;5.93;4.33;;;;;;;11.77;100.00;100634.66;4947704;29;20618;-77
2022/10/24 05:02:38;;;;;;;6.07;3.87;;;;;;;11.65;100.00;100631.94;4959539;28;20221;-77
2022/10/24 05:05:04;;;;;;;4.43;3.63;;;;;;;11.60;100.00;100642.97;4955298;28;20201;-77
2022/10/24 05:07:30;;;;;;;8.97;4.27;;;;;;;11.54;100.00;100633.50;4963990;28;20655;-78
2022/10/24 05:09:55;;;;;;;7.90;4.30;;;;;;;11.76;100.00;100638.03;4949938;29;20248;-78
2022/10/24 05:12:20;;;;;;;8.80;5.13;;;;;;;11.88;100.00;100638.19;4955408;29;20213;-78
2022/10/24 05:14:46;;;;;;;8.07;4.40;;;;;;;11.93;100.00;100633.13;4953084;28;20194;-78
2022/10/24 05:17:13;;;;;;;8.90;4.33;;;;;;;11.97;100.00;100625.44;4955389;29;20244;-79
2022/10/24 05:19:38;;;;;;;8.70;5.27;;;;;;;12.06;100.00;100633.25;4966213;28;20646;-77
2022/10/24 05:22:04;;;;;;;11.20;5.13;;;;;;;12.16;100.00;100640.19;4953332;29;20271;-76
2022/10/24 05:24:29;;;;;;;11.27;4.90;;;;;;;12.22;100.00;100631.69;4954315;29;20735;-77
2022/10/24 05:26:55;;;;;;;9.37;4.70;;;;;;;12.14;100.00;100634.19;4953909;29;20193;-78
2022/10/24 05:29:20;;;;;;;8.10;4.97;;;;;;;12.11;100.00;100631.59;4954571;29;20246;-78
2022/10/24 05:31:45;;;;;;;10.70;4.63;;;;;;;11.96;100.00;100625.44;4953369;29;20235;-77
2022/10/24 05:34:11;;;;;;;7.07;4.30;;;;;;;11.88;100.00;100624.47;4953456;29;20260;-78
2022/10/24 05:36:37;;;;;;;10.73;4.47;;;;;;;11.85;100.00;100625.31;4954789;28;20567;-78
2022/10/24 05:39:02;;;;;;;11.03;5.40;;;;;;;12.07;100.00;100622.13;4953796;28;20667;-77
2022/10/24 05:41:28;;;;;;;6.07;4.73;;;;;;;11.93;100.00;100623.69;4954053;29;20263;-79
2022/10/24 05:43:53;;;;;;;8.53;4.47;;;;;;;11.86;100.00;100639.88;4953802;29;20225;-78
2022/10/24 05:46:19;;;;;;;8.50;4.57;;;;;;;11.79;100.00;100638.09;4954458;29;20185;-78
2022/10/24 05:48:44;;;;;;;8.63;4.23;;;;;;;11.71;100.00;100643.97;4938532;29;20317;-78
2022/10/24 05:51:10;;;;;;;7.37;4.53;;;;;;;11.71;100.00;100642.25;4954261;29;20245;-78
2022/10/24 05:53:35;;;;;;;5.17;4.27;;;;;;;11.62;100.00;100644.72;4954403;29;20189;-78
2022/10/24 05:56:01;;;;;;;7.00;4.37;;;;;;;11.96;100.00;100633.13;4946949;29;20196;-77
2022/10/24 05:58:26;;;;;;;8.13;4.10;;;;;;;11.77;100.00;100634.66;4954987;29;20197;-77
2022/10/24 06:00:52;;;;;;;8.83;4.97;;;;;;;11.70;100.00;100634.56;4946457;29;20213;-78
2022/10/24 06:03:17;;;;;;;6.50;4.10;;;;;;;11.67;100.00;100632.84;4956806;28;20644;-78
2022/10/24 06:05:43;;;;;;;8.87;4.60;;;;;;;11.60;100.00;100630.16;4934429;29;20237;-77
2022/10/24 06:08:09;;;;;;;8.17;4.50;;;;;;;11.69;100.00;100623.44;4951900;28;20181;-78
2022/10/24 06:10:35;;;;;;;6.83;4.50;;;;;;;11.71;100.00;100631.16;4954472;29;20209;-76
2022/10/24 06:13:01;;;;;;;10.83;4.97;;;;;;;11.86;100.00;100623.63;4956213;28;20450;-77
2022/10/24 06:15:27;;;;;;;8.17;4.70;;;;;;;11.89;100.00;100624.50;4955415;29;20279;-76
2022/10/24 06:17:52;;;;;;;8.73;4.30;;;;;;;11.85;100.00;100633.00;4954992;29;20650;-76
2022/10/24 06:20:18;;;;;;;8.10;5.10;;;;;;;11.90;100.00;100633.91;4954150;29;20205;-79
2022/10/24 06:22:46;;;;;;;8.73;4.87;;;;;;;12.09;100.00;100633.28;4956332;29;20224;-80
2022/10/24 06:25:12;;;;;;;7.13;4.53;;;;;;;12.13;100.00;100626.47;4955111;28;20225;-78
2022/10/24 06:27:39;;;;;;;7.23;4.83;;;;;;;12.16;100.00;100627.34;4955549;29;20193;-78
2022/10/24 06:30:05;;;;;;;11.60;5.13;;;;;;;12.22;100.00;100629.97;4955004;29;20673;-78
2022/10/24 06:32:31;;;;;;;9.63;4.60;;;;;;;12.25;100.00;100631.69;4954519;29;20217;-78
2022/10/24 06:34:56;;;;;;;10.43;4.77;;;;;;;12.31;100.00;100612.06;4955178;29;20202;-78
2022/10/24 06:37:22;;;;;;;7.63;4.50;;;;;;;12.40;100.00;100625.00;4954589;29;20192;-78
2022/10/24 06:39:47;;;;;;;10.87;4.40;;;;;;;12.44;100.00;100619.03;4955028;28;20272;-79
2022/10/24 06:42:13;;;;;;;7.03;4.20;;;;;;;12.42;100.00;100623.31;4938571;28;20209;-78
2022/10/24 06:44:40;;;;;;;9.17;4.63;;;;;;;12.43;100.00;100625.03;4959343;29;20192;-78
2022/10/24 06:47:05;;;;;;;7.87;4.50;;;;;;;12.54;100.00;100623.41;4957149;29;20231;-79
2022/10/24 06:49:31;;;;;;;7.80;4.47;;;;;;;12.61;100.00;100621.72;4955123;28;20200;-78
2022/10/24 06:51:57;;;;;;;9.60;4.97;;;;;;;12.82;100.00;100633.03;4954506;28;20209;-79
2022/10/24 06:54:22;;;;;;;11.43;4.63;;;;;;;12.95;100.00;100636.56;4949958;28;20670;-78
2022/10/24 06:56:48;;;;;;;7.67;4.20;;;;;;;13.07;100.00;100628.94;4946840;28;20200;-78
2022/10/24 06:59:15;;;;;;;16.03;5.00;;;;;;;13.10;100.00;100630.66;4954096;28;20197;-78
2022/10/24 07:01:41;;;;;;;7.20;4.40;;;;;;;13.17;100.00;100632.44;4950981;29;20328;-78
2022/10/24 07:04:07;;;;;;;9.67;4.17;;;;;;;13.22;100.00;100638.44;4952558;29;20221;-78
2022/10/24 07:06:33;;;;;;;7.53;4.10;;;;;;;13.28;100.00;100646.19;4952543;29;20205;-78
2022/10/24 07:09:00;;;;;;;9.90;4.87;;;;;;;13.36;100.00;100660.81;4952836;28;20189;-78
2022/10/24 07:11:27;;;;;;;11.03;4.73;;;;;;;13.38;100.00;100646.25;4951931;29;20213;-78
2022/10/24 07:13:53;;;;;;;9.90;4.60;;;;;;;13.42;100.00;100652.25;4953416;28;20188;-77
2022/10/24 07:16:18;;;;;;;9.47;4.50;;;;;;;13.48;100.00;100649.75;4936747;29;20204;-78
2022/10/24 07:18:44;;;;;;;10.77;4.47;;;;;;;13.54;100.00;100662.63;4952195;29;20193;-77
2022/10/24 07:21:16;;;;;;;9.20;4.27;;;;;;;13.60;100.00;100666.09;4933254;28;20213;-78
2022/10/24 07:23:41;;;;;;;7.53;4.13;;;;;;;13.67;100.00;100666.97;4952379;29;20221;-77
2022/10/24 07:26:11;;;;;;;10.13;4.47;;;;;;;13.81;100.00;100668.72;4952532;29;20279;-77
2022/10/24 07:28:38;;;;;;;7.33;3.93;;;;;;;13.92;100.00;100671.34;4935420;28;20216;-77
2022/10/24 07:31:04;;;;;;;7.37;4.10;;;;;;;13.98;100.00;100650.75;4952294;29;20640;-78
2022/10/24 07:33:31;;;;;;;8.93;4.27;;;;;;;14.07;100.00;100658.50;4951670;29;20181;-78
2022/10/24 07:35:57;;;;;;;6.93;4.13;;;;;;;14.14;100.00;100666.22;4952335;29;20539;-77
2022/10/24 07:38:23;;;;;;;8.23;4.23;;;;;;;14.22;100.00;100668.88;4928371;29;20260;-78
2022/10/24 07:40:49;;;;;;;8.73;4.07;;;;;;;14.31;100.00;100668.91;4967003;28;20612;-78
2022/10/24 07:43:15;;;;;;;11.33;4.67;;;;;;;14.44;100.00;100662.88;4951905;29;20335;-77
2022/10/24 07:45:41;;;;;;;7.93;3.70;;;;;;;14.53;100.00;100673.19;4935585;28;20185;-78
2022/10/24 07:48:07;;;;;;;7.60;3.97;;;;;;;14.57;100.00;100668.06;4952739;28;20682;-77
2022/10/24 07:50:33;;;;;;;8.00;3.70;;;;;;;14.64;100.00;100664.59;4951770;29;20291;-77
2022/10/24 07:52:59;;;;;;;9.17;3.77;;;;;;;14.69;100.00;100669.78;4953086;28;20189;-78
2022/10/24 07:55:24;;;;;;;7.27;3.90;;;;;;;14.84;100.00;100680.06;4951815;28;20697;-77
2022/10/24 07:57:50;;;;;;;7.93;3.97;;;;;;;14.98;100.00;100670.59;4951325;29;20197;-77
2022/10/24 08:00:16;;;;;;;5.93;3.80;;;;;;;15.10;99.97;100675.75;4952665;28;20252;-78
2022/10/24 08:02:41;;;;;;;9.17;3.80;;;;;;;15.29;99.60;100672.28;4952639;28;20213;-79
2022/10/24 08:05:09;;;;;;;10.00;3.73;;;;;;;15.47;99.10;100673.09;4952509;28;20256;-77
2022/10/24 08:07:35;;;;;;;11.73;3.60;;;;;;;15.71;98.14;100669.59;4951161;29;20181;-78
2022/10/24 08:10:01;;;;;;;10.57;3.67;;;;;;;15.85;97.53;100663.50;4952106;28;20718;-78
2022/10/24 08:12:26;;;;;;;8.63;3.87;;;;;;;16.00;96.75;100666.00;4952533;28;20296;-78
2022/10/24 08:14:54;;;;;;;8.57;3.67;;;;;;;15.99;96.51;100666.88;4952301;28;20196;-78
2022/10/24 08:17:22;;;;;;;9.40;4.07;;;;;;;16.06;96.61;100660.78;4951171;29;20200;-78
2022/10/24 08:19:47;;;;;;;9.33;3.97;;;;;;;16.20;96.08;100664.16;4948329;29;20283;-79
2022/10/24 08:22:13;;;;;;;7.33;4.43;;;;;;;16.33;95.25;100663.19;4951338;29;20251;-79
2022/10/24 08:24:39;;;;;;;8.63;3.63;;;;;;;16.42;94.58;100662.31;4952119;28;20953;-78
2022/10/24 08:27:04;;;;;;;6.57;3.57;;;;;;;16.61;93.42;100653.53;4969434;28;20251;-77
2022/10/24 08:29:30;;;;;;;10.70;3.80;;;;;;;16.76;92.87;100662.03;4955056;29;20189;-78
2022/10/24 08:31:55;;;;;;;7.17;3.23;;;;;;;16.89;91.60;100662.78;4954982;29;20705;-77
2022/10/24 08:34:22;;;;;;;8.67;3.67;;;;;;;17.21;90.46;100664.19;4956084;28;20221;-78
2022/10/24 08:36:48;;;;;;;6.60;2.90;;;;;;;17.71;89.24;100643.78;4956553;28;20177;-78
2022/10/24 08:39:14;;;;;;;8.63;3.43;;;;;;;17.98;87.10;100652.91;4957329;29;20246;-78
2022/10/24 08:41:45;;;;;;;6.38;2.75;;;;;;;18.00;86.44;100649.44;4953091;29;20275;-78
2022/10/24 08:44:34;;;;;;;8.93;3.38;;;;;;;18.48;85.13;100647.88;4958156;28;20231;-78
2022/10/24 08:46:59;;;;;;;7.63;3.05;;;;;;;18.84;81.47;100653.31;4955627;29;20193;-78
2022/10/24 08:50:03;;;;;;;7.40;2.75;;;;;;;20.14;76.69;100641.22;4955533;28;20192;-78
2022/10/24 08:52:47;;;;;;;6.65;2.85;;;;;;;20.19;74.50;100640.25;4954913;29;20516;-79
2022/10/24 08:55:21;;;;;;;9.88;2.92;;;;;;;20.42;72.37;100631.88;4958535;29;20220;-78
2022/10/24 08:57:54;;;;;;;7.93;3.13;;;;;;;21.52;70.78;100627.25;4958078;28;20193;-79
2022/10/24 09:00:23;;;;;;;5.40;2.80;;;;;;;21.79;68.09;100629.09;4956831;29;20219;-78
2022/10/24 09:03:11;;;;;;;6.57;2.88;;;;;;;21.80;68.19;100631.66;4956328;28;20209;-78
2022/10/24 09:05:44;;;;;;;5.32;2.50;;;;;;;22.12;66.63;100630.66;4959368;28;20654;-78
2022/10/24 09:08:18;;;;;;;8.75;3.22;;;;;;;19.42;75.22;100648.81;4954271;29;20197;-78
2022/10/24 09:10:58;;;;;;;8.20;3.30;;;;;;;18.55;79.88;100659.84;4954270;29;20589;-78
2022/10/24 09:13:27;;;;;;;8.60;3.40;;;;;;;18.42;81.77;100648.00;4952396;29;20228;-78
2022/10/24 09:15:52;;;;;;;11.63;3.50;;;;;;;18.33;82.57;100651.56;4953335;28;20249;-78
2022/10/24 09:18:33;;;;;;;9.13;3.43;;;;;;;18.21;83.04;100669.88;4954610;29;20201;-78
2022/10/24 09:20:59;;;;;;;6.23;3.10;;;;;;;18.16;83.58;100653.53;4955443;28;20228;-78
2022/10/24 09:23:25;;;;;;;9.30;3.37;;;;;;;18.36;82.40;100638.56;4947196;29;20224;-77
2022/10/24 09:25:55;;;;;;;9.50;3.23;;;;;;;18.73;80.91;100654.38;4954721;28;20198;-79
2022/10/24 09:28:22;;;;;;;7.60;3.17;;;;;;;20.29;74.69;100633.06;4957005;28;20198;-78
2022/10/24 09:30:48;;;;;;;9.67;3.10;;;;;;;18.81;78.11;100635.22;4941336;29;20227;-78
2022/10/24 09:33:33;;;;;;;6.77;2.40;;;;;;;18.36;80.59;100635.09;4961511;28;20189;-78
2022/10/24 09:36:02;;;;;;;8.50;2.80;;;;;;;18.18;80.45;100643.13;4960871;29;20614;-78
2022/10/24 09:38:33;;;;;;;5.37;2.60;;;;;;;18.20;81.58;100631.84;4954993;28;20189;-79
2022/10/24 09:41:03;;;;;;;8.90;3.43;;;;;;;18.18;81.98;100628.44;4952670;28;20242;-81
2022/10/24 09:43:47;;;;;;;9.43;2.77;;;;;;;18.23;81.05;100637.00;4943437;29;20576;-79
2022/10/24 09:46:22;;;;;;;5.57;2.47;;;;;;;18.13;81.28;100639.75;4955313;28;20197;-80
2022/10/24 09:48:56;;;;;;;7.40;2.93;;;;;;;18.42;80.30;100637.63;4956443;28;20187;-80
2022/10/24 09:51:26;;;;;;;5.37;2.77;;;;;;;18.53;79.65;100633.97;4957474;28;20221;-77
2022/10/24 09:54:19;;;;;;;5.97;2.63;;;;;;;18.31;81.50;100640.34;4952460;28;20300;-75
2022/10/24 09:56:46;;;;;;;10.80;3.10;;;;;;;18.24;82.34;100640.44;4952390;29;20192;-75
2022/10/24 09:59:30;;;;;;;6.20;3.17;;;;;;;18.72;79.56;100637.97;4950013;29;20199;-75
2022/10/24 10:02:26;;;;;;;6.83;2.60;;;;;;;19.36;76.54;100633.34;4953151;29;20236;-75
2022/10/24 10:05:03;;;;;;;5.23;2.60;;;;;;;19.26;75.00;100634.38;4951245;29;20227;-76
2022/10/24 10:07:37;;;;;;;6.57;2.80;;;;;;;19.17;76.58;100631.09;4952536;28;20240;-75
2022/10/24 10:10:24;;;;;;;9.17;2.90;;;;;;;20.32;71.19;100625.19;4953592;28;20186;-76
2022/10/24 10:13:01;;;;;;;6.13;2.73;;;;;;;19.58;74.33;100623.38;4953041;28;20192;-75
2022/10/24 10:15:44;;;;;;;6.20;2.70;;;;;;;23.25;61.58;100600.78;4951656;29;20790;-76
2022/10/24 10:18:19;;;;;;;10.70;3.25;;;;;;;26.12;52.02;100594.66;4952149;29;20247;-76
2022/10/24 10:20:44;;;;;;;7.22;2.60;;;;;;;25.75;51.73;100613.91;4950794;29;20219;-76
2022/10/24 10:23:21;;;;;;;5.72;2.45;;;;;;;27.47;47.87;100603.47;4951377;28;20221;-75
2022/10/24 10:25:46;;;;;;;6.15;2.67;;;;;;;27.92;46.26;100595.75;4949910;29;20200;-76
2022/10/24 10:28:20;;;;;;;5.72;2.25;;;;;;;27.90;44.86;100582.66;4953763;28;20193;-76
2022/10/24 10:30:59;;;;;;;6.50;2.30;;;;;;;28.38;44.04;100579.03;4952670;29;20635;-75
2022/10/24 10:33:48;;;;;;;6.82;2.47;;;;;;;29.08;41.62;100589.78;4963803;28;20192;-78
2022/10/24 10:36:26;;;;;;;7.07;2.42;;;;;;;28.75;41.97;100595.28;4946558;29;20205;-76
2022/10/24 10:39:08;;;;;;;7.18;2.28;;;;;;;27.83;43.82;100585.72;4947576;29;20211;-75
2022/10/24 10:41:47;;;;;;;9.65;2.20;;;;;;;28.65;41.60;100583.56;4935548;28;20434;-76
2022/10/24 10:44:34;;;;;;;10.18;2.10;;;;;;;28.17;41.12;100588.16;4949516;29;20721;-76
2022/10/24 10:47:18;;;;;;;6.88;1.88;;;;;;;28.08;41.38;100584.25;4939417;29;20634;-76
2022/10/24 10:49:47;;;;;;;7.05;2.20;;;;;;;28.54;40.78;100585.97;4941827;28;20666;-76
2022/10/24 10:52:19;;;;;;;3.63;1.75;;;;;;;29.32;38.50;100583.00;4937568;29;20220;-76
2022/10/24 10:55:22;;;;;;;8.48;2.00;;;;;;;32.04;34.54;100578.53;4947571;28;20292;-76
2022/10/24 10:57:58;;;;;;;3.95;2.00;;;;;;;32.26;34.66;100572.47;4942920;29;20212;-77
2022/10/24 11:00:38;;;;;;;6.10;1.95;;;;;;;30.39;37.07;100584.91;4940325;29;20239;-76
2022/10/24 11:03:19;;;;;;;6.15;1.83;;;;;;;27.00;42.79;100589.31;4945423;29;20275;-75
2022/10/24 11:05:51;;;;;;;5.75;1.98;;;;;;;27.72;40.67;100596.78;4930829;29;20197;-75
2022/10/24 11:08:44;;;;;;;4.18;1.70;;;;;;;23.02;52.17;100617.22;4947715;29;20770;-75
2022/10/24 11:11:31;;;;;;;3.40;2.03;;;;;;;21.85;57.00;100619.31;4940344;29;20938;-77
2022/10/24 11:14:04;;;;;;;7.30;1.97;;;;;;;21.15;60.01;100631.75;4942421;28;20204;-77
2022/10/24 11:16:31;;;;;;;5.30;1.87;;;;;;;20.82;61.42;100609.19;4943041;28;20197;-76
2022/10/24 11:19:04;;;;;;;6.77;2.20;;;;;;;20.72;63.09;100616.38;4945520;29;20324;-77
2022/10/24 11:21:32;;;;;;;5.07;1.63;;;;;;;20.62;63.60;100616.63;4943480;29;20230;-77
2022/10/24 11:24:21;;;;;;;5.80;1.87;;;;;;;20.44;64.06;100623.16;4938844;29;20224;-76
2022/10/24 11:27:05;;;;;;;5.73;1.73;;;;;;;20.24;64.77;100625.38;4947982;29;20278;-76
2022/10/24 11:30:06;;;;;;;3.53;1.63;;;;;;;20.06;64.59;100625.78;4947122;29;20566;-76
2022/10/24 11:33:02;;;;;;;9.13;2.00;;;;;;;20.19;65.31;100632.44;4946028;28;20335;-77